createdAt,value
2023-02-02T07:23:46.881Z,21.65
2023-02-02T07:24:47.068Z,21.65
2023-02-02T07:25:47.369Z,21.65
2023-02-02T07:26:47.717Z,21.65
2023-02-02T07:27:48.009Z,21.67
2023-02-02T07:28:48.323Z,21.65
2023-02-02T07:29:48.579Z,21.68
2023-02-02T07:30:48.956Z,21.67
2023-02-02T07:31:49.190Z,21.68
2023-02-02T07:32:49.372Z,21.68
2023-02-02T07:33:49.527Z,21.69
2023-02-02T07:34:49.817Z,21.69
2023-02-02T07:35:49.991Z,21.71
2023-02-02T07:36:50.292Z,21.71
2023-02-02T07:37:50.445Z,21.72
2023-02-02T07:38:50.722Z,21.74
2023-02-02T07:39:50.975Z,21.74
2023-02-02T07:40:51.275Z,21.75
2023-02-02T07:41:51.415Z,21.75
2023-02-02T07:42:51.697Z,21.77
2023-02-02T07:43:51.945Z,21.77
2023-02-02T07:44:52.222Z,21.77
2023-02-02T07:45:52.475Z,21.79
2023-02-02T07:46:52.787Z,21.80
2023-02-02T07:47:52.914Z,21.82
2023-02-02T07:48:53.223Z,21.82
2023-02-02T07:49:53.433Z,21.83
2023-02-02T07:50:53.706Z,21.84
2023-02-02T07:51:53.944Z,21.86
2023-02-02T07:52:54.232Z,21.88
2023-02-02T07:53:54.495Z,21.88
2023-02-02T07:55:02.560Z,21.91
2023-02-02T07:55:56.008Z,21.90
2023-02-02T07:56:55.208Z,21.91
2023-02-02T07:57:55.605Z,21.92
2023-02-02T07:58:55.795Z,21.96
2023-02-02T07:59:55.860Z,22.00
2023-02-02T08:00:56.219Z,22.03
2023-02-02T08:01:56.379Z,22.07
2023-02-02T08:02:56.556Z,22.09
2023-02-02T08:03:56.745Z,22.14
2023-02-02T08:04:57.008Z,22.17
2023-02-02T08:05:57.243Z,22.21
2023-02-02T08:06:57.500Z,22.22
2023-02-02T08:07:57.632Z,22.24
2023-02-02T08:08:57.894Z,22.24
2023-02-02T08:09:58.122Z,22.27
2023-02-02T08:10:58.391Z,22.27
2023-02-02T08:11:58.613Z,22.28
2023-02-02T08:12:58.864Z,22.31
2023-02-02T08:13:59.129Z,22.36
2023-02-02T08:14:59.275Z,22.39
2023-02-02T08:15:59.643Z,22.42
2023-02-02T08:16:59.744Z,22.45
2023-02-02T08:17:59.973Z,22.45
2023-02-02T08:19:00.242Z,22.45
2023-02-02T08:20:00.446Z,22.43
2023-02-02T08:21:00.726Z,22.43
2023-02-02T08:22:00.825Z,22.40
2023-02-02T08:23:01.078Z,22.37
2023-02-02T08:24:01.306Z,22.33
2023-02-02T08:25:01.573Z,22.28
2023-02-02T08:26:01.789Z,22.25
2023-02-02T08:27:02.118Z,22.21
2023-02-02T08:28:02.188Z,22.15
2023-02-02T08:29:02.466Z,22.10
2023-02-02T08:30:02.684Z,22.07
2023-02-02T08:31:02.947Z,22.06
2023-02-02T08:32:03.160Z,22.05
2023-02-02T08:33:03.396Z,22.02
2023-02-02T08:34:03.632Z,21.99
2023-02-02T08:35:03.881Z,21.96
2023-02-02T08:36:04.119Z,21.92
2023-02-02T08:37:04.359Z,21.90
2023-02-02T08:38:04.590Z,21.86
2023-02-02T08:39:04.868Z,21.84
2023-02-02T08:40:05.137Z,21.84
2023-02-02T08:41:05.380Z,21.83
2023-02-02T08:42:05.593Z,21.82
2023-02-02T08:43:05.871Z,21.80
2023-02-02T08:44:06.052Z,21.79
2023-02-02T08:46:01.994Z,21.77
2023-02-02T08:46:07.554Z,21.75
2023-02-02T08:47:06.807Z,21.74
2023-02-02T08:48:12.111Z,21.72
2023-02-02T08:49:08.207Z,21.72
2023-02-02T08:50:07.396Z,21.69
2023-02-02T08:51:07.644Z,21.68
2023-02-02T08:52:07.874Z,21.67
2023-02-02T08:53:08.144Z,21.65
2023-02-02T08:54:08.377Z,21.65
2023-02-02T08:55:08.635Z,21.65
2023-02-02T08:56:08.756Z,21.64
2023-02-02T08:57:09.015Z,21.64
2023-02-02T08:58:09.245Z,21.62
2023-02-02T08:59:09.510Z,21.62
2023-02-02T09:00:09.766Z,21.61
2023-02-02T09:01:10.203Z,21.61
2023-02-02T09:02:10.210Z,21.58
2023-02-02T09:03:10.427Z,21.58
2023-02-02T09:04:10.657Z,21.54
2023-02-02T09:05:10.908Z,21.54
2023-02-02T09:06:11.137Z,21.54
2023-02-02T09:07:11.389Z,21.54
2023-02-02T09:08:11.656Z,21.53
2023-02-02T09:09:11.800Z,21.50
2023-02-02T09:10:12.038Z,21.49
2023-02-02T09:11:12.300Z,21.49
2023-02-02T09:12:12.540Z,21.49
2023-02-02T09:13:12.831Z,21.49
2023-02-02T09:14:13.034Z,21.50
2023-02-02T09:15:13.276Z,21.53
2023-02-02T09:16:13.531Z,21.58
2023-02-02T09:17:13.689Z,21.61
2023-02-02T09:18:13.925Z,21.65
2023-02-02T09:19:14.172Z,21.69
2023-02-02T09:20:14.405Z,21.75
2023-02-02T09:21:14.662Z,21.80
2023-02-02T09:22:14.954Z,21.88
2023-02-02T09:23:15.174Z,21.91
2023-02-02T09:24:15.421Z,21.98
2023-02-02T09:25:15.670Z,22.00
2023-02-02T09:26:15.915Z,22.07
2023-02-02T09:27:16.182Z,22.12
2023-02-02T09:28:16.414Z,22.15
2023-02-02T09:29:16.668Z,22.21
2023-02-02T09:30:16.916Z,22.24
2023-02-02T09:31:17.311Z,22.28
2023-02-02T09:32:17.439Z,22.31
2023-02-02T09:33:17.702Z,22.36
2023-02-02T09:34:17.978Z,22.37
2023-02-02T09:35:18.236Z,22.40
2023-02-02T09:36:18.463Z,22.43
2023-02-02T09:37:18.717Z,22.47
2023-02-02T09:38:18.977Z,22.49
2023-02-02T09:39:19.218Z,22.54
2023-02-02T09:40:19.525Z,22.55
2023-02-02T09:41:19.619Z,22.57
2023-02-02T09:42:19.871Z,22.61
2023-02-02T09:43:20.097Z,22.64
2023-02-02T09:44:20.348Z,22.67
2023-02-02T09:45:20.599Z,22.70
2023-02-02T09:46:20.899Z,22.72
2023-02-02T09:47:21.009Z,22.75
2023-02-02T09:48:21.265Z,22.77
2023-02-02T09:49:21.496Z,22.79
2023-02-02T09:50:21.741Z,22.80
2023-02-02T09:51:21.971Z,22.82
2023-02-02T09:52:22.220Z,22.85
2023-02-02T09:53:22.441Z,22.88
2023-02-02T09:54:22.688Z,22.90
2023-02-02T09:55:23.213Z,22.91
2023-02-02T09:56:23.122Z,22.92
2023-02-02T09:57:23.231Z,22.94
2023-02-02T09:58:23.465Z,22.97
2023-02-02T09:59:24.719Z,22.98
2023-02-02T10:00:23.940Z,23.00
2023-02-02T10:01:24.254Z,23.01
2023-02-02T10:02:24.397Z,23.04
2023-02-02T10:03:24.513Z,23.04
2023-02-02T10:04:24.791Z,23.09
2023-02-02T10:05:25.196Z,23.10
2023-02-02T10:06:25.179Z,23.13
2023-02-02T10:07:25.301Z,23.13
2023-02-02T10:08:34.392Z,23.16
2023-02-02T10:09:26.757Z,23.17
2023-02-02T10:10:25.973Z,23.17
2023-02-02T10:11:26.179Z,23.20
2023-02-02T10:12:26.426Z,23.22
2023-02-02T10:13:26.658Z,23.22
2023-02-02T10:14:26.942Z,23.22
2023-02-02T10:15:27.561Z,23.23
2023-02-02T10:16:27.318Z,23.23
2023-02-02T10:17:27.558Z,23.23
2023-02-02T10:18:27.817Z,23.19
2023-02-02T10:19:28.050Z,23.01
2023-02-02T10:20:28.477Z,22.75
2023-02-02T10:21:28.535Z,22.52
2023-02-02T10:22:28.775Z,22.37
2023-02-02T10:23:28.903Z,22.37
2023-02-02T10:24:29.159Z,22.47
2023-02-02T10:25:29.289Z,22.60
2023-02-02T10:26:29.569Z,22.70
2023-02-02T10:27:29.764Z,22.77
2023-02-02T10:28:30.052Z,22.80
2023-02-02T10:29:40.057Z,22.85
2023-02-02T10:30:31.473Z,22.86
2023-02-02T10:31:30.726Z,22.90
2023-02-02T10:32:30.869Z,22.94
2023-02-02T10:33:31.094Z,22.97
2023-02-02T10:34:31.359Z,23.00
2023-02-02T10:35:31.486Z,23.02
2023-02-02T10:36:31.735Z,23.05
2023-02-02T10:37:31.975Z,23.07
2023-02-02T10:38:32.234Z,23.12
2023-02-02T10:39:32.366Z,23.13
2023-02-02T10:40:32.615Z,23.16
2023-02-02T10:41:32.855Z,23.17
2023-02-02T10:42:33.113Z,23.20
2023-02-02T10:43:33.340Z,23.23
2023-02-02T10:44:33.617Z,23.25
2023-02-02T10:45:33.727Z,23.27
2023-02-02T10:46:34.109Z,23.28
2023-02-02T10:47:34.162Z,23.31
2023-02-02T10:48:34.419Z,23.33
2023-02-02T10:49:34.542Z,23.33
2023-02-02T10:50:34.792Z,23.35
2023-02-02T10:51:34.911Z,23.36
2023-02-02T10:52:35.186Z,23.38
2023-02-02T10:53:35.381Z,23.40
2023-02-02T10:54:50.098Z,23.43
2023-02-02T10:55:36.847Z,23.47
2023-02-02T10:56:36.039Z,23.47
2023-02-02T10:57:36.150Z,23.47
2023-02-02T10:58:36.398Z,23.48
2023-02-02T10:59:36.628Z,23.48
2023-02-02T11:00:37.035Z,23.50
2023-02-02T11:01:37.117Z,23.50
2023-02-02T11:02:37.399Z,23.53
2023-02-02T11:03:37.493Z,23.51
2023-02-02T11:04:37.743Z,23.51
2023-02-02T11:05:37.972Z,23.51
2023-02-02T11:06:38.223Z,23.51
2023-02-02T11:07:38.335Z,23.53
2023-02-02T11:08:38.577Z,23.53
2023-02-02T11:09:38.808Z,23.54
2023-02-02T11:10:39.056Z,23.53
2023-02-02T11:11:39.178Z,23.55
2023-02-02T11:12:39.356Z,23.54
2023-02-02T11:13:39.474Z,23.55
2023-02-02T11:14:45.264Z,23.55
2023-02-02T11:15:40.990Z,23.57
2023-02-02T11:16:43.674Z,23.57
2023-02-02T11:17:40.317Z,23.57
2023-02-02T11:18:41.200Z,23.57
2023-02-02T11:19:40.758Z,23.57
2023-02-02T11:20:41.004Z,23.57
2023-02-02T11:21:41.228Z,23.57
2023-02-02T11:22:41.474Z,23.57
2023-02-02T11:23:41.700Z,23.55
2023-02-02T11:24:41.950Z,23.54
2023-02-02T11:25:42.180Z,23.55
2023-02-02T11:26:42.526Z,23.54
2023-02-02T11:27:42.587Z,23.55
2023-02-02T11:28:42.832Z,23.54
2023-02-02T11:29:42.959Z,23.54
2023-02-02T11:30:43.242Z,23.53
2023-02-02T11:31:43.411Z,23.51
2023-02-02T11:32:43.543Z,23.51
2023-02-02T11:33:43.643Z,23.51
2023-02-02T11:34:43.899Z,23.50
